Flight Track Log - Related Links

Times and Time Zones

All times are in EDT time to prevent confusion due to time zone crossing. See the RPA3311 flight status page for this flight to view local times or setup timezone preferences in your user account.

Time Position Orientation Groundspeed Altitude Reporting Facility
EDT Latitude Longitude Course Direction KTS MPH feet Rate Location/Type
12:04PM 41.7331 -71.4192 360° North 138 159 800  Level Boston Center
12:04PM 41.7414 -71.4192 360° North 143 165 1,200 2,000 Climbing Boston Center
12:05PM 41.7875 -71.4350 346° North 170 196 3,000 2,331 Climbing Boston Center
12:06PM 41.8275 -71.5094 306° West 235 270 5,900 3,203 Climbing Boston Center
12:07PM 41.8700 -71.5842 307° West 266 306 9,300 3,254 Climbing Boston Center
12:08PM 41.9247 -71.6617 314° West 278 320 12,300 2,975 Climbing Boston Center
12:09PM 41.9814 -71.7558 309° West 295 339 15,300 2,579 Climbing Boston Center
12:10PM 41.9925 -71.8592 278° West 305 351 17,500 2,067 Climbing Boston Center
12:11PM 41.9994 -71.9875 274° West 333 383 19,400 2,118 Climbing Boston Center
12:12PM 41.9539 -72.1022 242° Southwest 341 392 21,700 2,182 Climbing Boston Center
12:13PM 41.9022 -72.2197 239° Southwest 341 392 23,800 2,033 Climbing Boston Center
12:14PM 41.8503 -72.3369 239° Southwest 363 418 25,800 1,091 Climbing Boston Center
12:15PM 41.8044 -72.4317 237° Southwest 376 433 26,000 102 Climbing Boston Center
12:16PM 41.7522 -72.5542 240° Southwest 381 438 26,000  Level Boston Center
12:17PM 41.6894 -72.6847 237° Southwest 381 438 26,000  Level Boston Center
12:18PM 41.6328 -72.8150 240° Southwest 381 438 26,000  Level Boston Center
12:19PM 41.5803 -72.9314 239° Southwest 381 438 26,000  Level Boston Center
12:20PM 41.5233 -73.0583 239° Southwest 376 433 26,000  Level Boston Center
12:21PM 41.4686 -73.1769 238° Southwest 376 433 26,000  Level Boston Center
12:22PM 41.4156 -73.2956 239° Southwest 376 433 26,000  Level Boston Center
12:23PM 41.3606 -73.4108 238° Southwest 381 438 26,000  Level Boston Center
12:25PM 41.2300 -73.6733 237° Southwest 420 483 26,000  Level New York Center
12:26PM 41.1539 -73.7997 231° Southwest 436 502 26,000  Level New York Center
12:27PM 41.0711 -73.9417 232° Southwest 446 513 26,000  Level New York Center
12:28PM 40.9947 -74.0672 231° Southwest 451 519 26,000  Level New York Center
12:29PM 40.9142 -74.1925 230° Southwest 451 519 26,000  Level New York Center
12:30PM 40.8397 -74.3175 232° Southwest 451 519 26,000  Level New York Center
12:31PM 40.7628 -74.4450 231° Southwest 451 519 26,000 -101 Level New York Center
12:32PM 40.6858 -74.5694 231° Southwest 451 519 25,800 -661 Descending New York Center
12:33PM 40.6111 -74.6939 232° Southwest 451 519 24,700 -1,091 Descending New York Center
12:34PM 40.5342 -74.8125 230° Southwest 446 513 23,600 -1,082 Descending New York Center
12:35PM 40.4508 -74.9275 226° Southwest 446 513 22,500 -1,050 Descending New York Center
12:36PM 40.3739 -75.0400 228° Southwest 432 497 21,500 -1,008 Descending New York Center
12:37PM 40.2950 -75.1494 227° Southwest 427 491 20,500 -744 Descending New York Center
12:38PM 40.2178 -75.2586 227° Southwest 422 486 20,000 -248 Descending New York Center
12:39PM 40.1428 -75.3653 227° Southwest 422 486 20,000  Level New York Center
12:40PM 40.0658 -75.4714 227° Southwest 416 479 20,000 -43 Level New York Center
12:46PM 39.6940 -76.0400 227° Southwest 100 115 19,700 -168 Descending FlightAware
12:47PM 39.6610 -76.0920 231° Southwest 340 391 18,900 -868 Descending FlightAware
12:48PM 39.6230 -76.1520 231° Southwest 348 400 18,600 -1,520 Descending FlightAware
12:48PM 39.5810 -76.2160 230° Southwest 330 380 17,000 -1,157 Descending FlightAware
12:49PM 39.5410 -76.2780 230° Southwest 330 380 17,000  Level FlightAware
12:49PM 39.5130 -76.3220 230° Southwest 330 380 17,000  Level FlightAware
12:50PM 39.4800 -76.3720 229° Southwest 330 380 17,000  Level FlightAware
12:51PM 39.4490 -76.4200 230° Southwest 330 380 17,000  Level FlightAware
12:51PM 39.4190 -76.4660 230° Southwest 330 380 17,000  Level FlightAware
12:52PM 39.3900 -76.5110 230° Southwest 330 380 17,000 -3,000 Level FlightAware
12:53PM 39.5500 -76.8000 230° Southwest 308 354 12,000 -2,381 Descending Potomac TRACON
12:54PM 39.4833 -76.8500 210° Southwest 318 366 12,000 -298 Level Potomac TRACON
12:55PM 39.4000 -76.8000 155° Southeast 303 349 11,400 -744 Descending Potomac TRACON
12:56PM 39.3167 -76.7500 155° Southeast 299 344 10,500 -661 Descending Potomac TRACON
12:57PM 39.2500 -76.7000 150° Southeast 293 337 10,000 -238 Descending Potomac TRACON
12:58PM 39.1667 -76.6833 171° South 297 342 10,000  Level Potomac TRACON
12:59PM 39.1167 -76.7333 218° Southwest 297 342 10,000  Level Potomac TRACON
01:00PM 39.0500 -76.8167 224° Southwest 297 342 10,000 -236 Level Potomac TRACON
01:01PM 38.9833 -76.8833 218° Southwest 293 337 9,500 -1,091 Descending Potomac TRACON
01:02PM 38.9167 -76.9500 218° Southwest 290 334 7,800 -1,736 Descending Potomac TRACON
01:03PM 38.8333 -76.9500 180° South 295 339 6,000 -1,041 Descending Potomac TRACON
01:04PM 38.7667 -76.9500 180° South 227 261 5,700 -750 Descending Potomac TRACON
01:05PM 38.7000 -76.9333 169° South 210 242 4,500 -850 Descending Potomac TRACON
01:06PM 38.6500 -76.9333 180° South 209 241 4,000 -248 Descending Potomac TRACON
01:07PM 38.5833 -76.9333 180° South 208 239 4,000  Level Potomac TRACON
01:08PM 38.5500 -76.9167 159° South 208 239 4,000  Level Potomac TRACON
01:09PM 38.5167 -76.9833 237° Southwest 214 246 4,000  Level Potomac TRACON
01:10PM 38.5500 -77.0167 322° Northwest 195 224 4,000  Level Potomac TRACON
01:11PM 38.6167 -77.0167 360° North 193 222 4,000 -248 Level Potomac TRACON
01:12PM 38.6667 -77.0167 360° North 177 204 3,500 -661 Descending Potomac TRACON
01:13PM 38.7167 -77.0167 360° North 175 201 2,600 -850 Descending Potomac TRACON
01:14PM 38.7667 -77.0333 345° North 174 200 1,700 -887 Descending Potomac TRACON
01:15PM 38.8000 -77.0333 360° North 147 169 900 -889 Descending Potomac TRACON

Login

Don't have an account? Register now (free) for customized features, flight alerts, and more!